Luray, VA

1:00 AM EST on February 10, 2016 (GMT -0500)
Luray Caverns AP, Luray, VA

Weather History for KLUA - April, 2014

Change the Weather History Date:

Monday, April 21, 2014

  Actual Average (KCHO) Record (KCHO)
Temperature  
Mean Temperature 55 °F 57 °F  
Max Temperature 77 °F 69 °F 93 °F (1976)
Min Temperature 33 °F 45 °F 31 °F (1953)
Degree Days  
Heating Degree Days 10 9  
Month to date heating degree days 239  
Since 1 July heating degree days 4243  
Cooling Degree Days 0 1  
Month to date cooling degree days 13  
Year to date cooling degree days 15  
Growing Degree Days 5 (Base 50)    
Moisture  
Dew Point 36 °F    
Average Humidity 54    
Maximum Humidity 100    
Minimum Humidity 21    
Precipitation  
Precipitation 0.00 in 0.12 in 1.03 in (2002)
Month to date precipitation 2.38  
Year to date precipitation 11.51  
Sea Level Pressure  
Sea Level Pressure 30.07 in    
Wind  
Wind Speed 2 mph (South)    
Max Wind Speed 6 mph    
Max Gust Speed -    
Visibility 10 miles    
Events      
T = Trace of Precipitation, MM = Missing Value Source: NWS Daily Summary

Daily Weather History Graph

Daily Weather History Graph

Search for Another Location

Airport or City:

Trip Planner

Search our weather history database for the weather conditions in past years. The results will help you decide how hot, cold, wet, or windy it might be!

Date:

Astronomy

Apr. 21, 2014 Rise Set
Actual Time 6:29 AM EDT 7:56 PM EDT
Civil Twilight 6:01 AM EDT 8:24 PM EDT
Nautical Twilight 5:28 AM EDT 8:58 PM EDT
Astronomical Twilight 4:52 AM EDT 9:33 PM EDT
Moon 1:24 AM EDT (4/21) 11:54 AM EDT (4/21)
Length of Visible Light 14h 22m
Length of Day
13h 27m
Waning Gibbous, 58% of the Moon is Illuminated
Apr 21
Waning Gibbous
Apr 22
Last Quarter
Apr 29
New
May 6
First Quarter
May 14
Full

Hourly Weather History & Observations

Time (EDT) Temp. Windchill Dew Point Humidity Pressure Visibility Wind Dir Wind Speed Gust Speed Precip Events Conditions
12:15 AM 48.2 °F - 35.6 °F 62% 30.26 in 10.0 mi NNE 4.6 mph - N/A   Clear
12:35 AM 48.2 °F - 33.8 °F 58% 30.25 in 10.0 mi NNE 3.5 mph - N/A   Clear
12:55 AM 46.4 °F 43.5 °F 35.6 °F 66% 30.25 in 10.0 mi NNW 5.8 mph - N/A   Clear
1:15 AM 44.6 °F 42.2 °F 35.6 °F 71% 30.24 in 10.0 mi North 4.6 mph - N/A   Clear
1:35 AM 42.8 °F 41.1 °F 35.6 °F 76% 30.24 in 10.0 mi North 3.5 mph - N/A   Clear
1:55 AM 42.8 °F 41.1 °F 33.8 °F 70% 30.23 in 10.0 mi NNW 3.5 mph - N/A   Clear
2:15 AM 41.0 °F - 33.8 °F 76% 30.22 in 10.0 mi Calm Calm - N/A   Clear
2:35 AM 41.0 °F - 35.6 °F 81% 30.21 in 10.0 mi Calm Calm - N/A   Clear
2:55 AM 39.2 °F 37.0 °F 33.8 °F 81% 30.21 in 10.0 mi SSW 3.5 mph - N/A   Clear
3:15 AM 39.2 °F - 33.8 °F 81% 30.21 in 10.0 mi Calm Calm - N/A   Clear
3:35 AM 41.0 °F - 35.6 °F 81% 30.21 in 10.0 mi Calm Calm - N/A   Clear
3:55 AM 39.2 °F 37.0 °F 35.6 °F 87% 30.21 in 10.0 mi SSW 3.5 mph - N/A   Clear
4:15 AM 39.2 °F - 33.8 °F 81% 30.21 in 10.0 mi Calm Calm - N/A   Clear
4:35 AM 37.4 °F - 35.6 °F 93% 30.21 in 10.0 mi Calm Calm - N/A   Clear
4:55 AM 37.4 °F 34.9 °F 33.8 °F 87% 30.20 in 10.0 mi South 3.5 mph - N/A   Clear
5:15 AM 35.6 °F - 33.8 °F 93% 30.20 in 10.0 mi Calm Calm - N/A   Clear
5:35 AM 35.6 °F - 35.6 °F 100% 30.20 in 10.0 mi Calm Calm - N/A   Clear
5:55 AM 35.6 °F - 35.6 °F 100% 30.21 in 10.0 mi Calm Calm - N/A   Clear
6:15 AM 33.8 °F - 33.8 °F 100% 30.21 in 10.0 mi Calm Calm - N/A   Clear
6:35 AM 35.6 °F - 35.6 °F 100% 30.21 in 10.0 mi Calm Calm - N/A   Clear
6:55 AM 35.6 °F - 35.6 °F 100% 30.21 in 10.0 mi Calm Calm - N/A   Clear
7:15 AM 35.6 °F - 35.6 °F 100% 30.20 in 10.0 mi Calm Calm - N/A   Clear
7:35 AM 37.4 °F 34.9 °F 37.4 °F 100% 30.19 in 10.0 mi South 3.5 mph - N/A   Clear
7:55 AM 41.0 °F 39.0 °F 35.6 °F 81% 30.19 in 10.0 mi South 3.5 mph - N/A   Clear
8:15 AM 42.8 °F - 35.6 °F 76% 30.18 in 10.0 mi Calm Calm - N/A   Clear
8:35 AM 44.6 °F - 37.4 °F 76% 30.18 in 10.0 mi Calm Calm - N/A   Clear
8:55 AM 46.4 °F - 37.4 °F 71% 30.18 in 10.0 mi Calm Calm - N/A   Clear
9:15 AM 50.0 °F - 37.4 °F 62% 30.17 in 10.0 mi Calm Calm - N/A   Clear
9:35 AM 51.8 °F - 37.4 °F 58% 30.16 in 10.0 mi SSW 3.5 mph - N/A   Clear
9:55 AM 53.6 °F - 37.4 °F 54% 30.16 in 10.0 mi Calm Calm - N/A   Clear
10:15 AM 55.4 °F - 39.2 °F 54% 30.16 in 10.0 mi Calm Calm - N/A   Clear
10:35 AM 57.2 °F - 37.4 °F 48% 30.16 in 10.0 mi Calm Calm - N/A   Clear
10:55 AM 57.2 °F - 37.4 °F 48% 30.15 in 10.0 mi Calm Calm - N/A   Clear
11:15 AM 60.8 °F - 39.2 °F 45% 30.14 in 10.0 mi West 4.6 mph - N/A   Clear
11:35 AM 60.8 °F - 41.0 °F 48% 30.13 in 10.0 mi Calm Calm - N/A   Clear
11:55 AM 62.6 °F - 39.2 °F 42% 30.12 in 10.0 mi Calm Calm - N/A   Clear
12:15 PM 64.4 °F - 41.0 °F 42% 30.10 in 10.0 mi West 3.5 mph - N/A   Clear
12:35 PM 64.4 °F - 35.6 °F 34% 30.08 in 10.0 mi SE 3.5 mph - N/A   Clear
12:55 PM 66.2 °F - 33.8 °F 30% 30.07 in 10.0 mi Calm Calm - N/A   Clear
1:15 PM 68.0 °F - 33.8 °F 28% 30.06 in 10.0 mi Calm Calm - N/A   Clear
1:35 PM 69.8 °F - 33.8 °F 27% 30.05 in 10.0 mi Calm Calm - N/A   Clear
1:55 PM 69.8 °F - 33.8 °F 27% 30.04 in 10.0 mi Calm Calm - N/A   Clear
2:15 PM 71.6 °F - 32.0 °F 23% 30.02 in 10.0 mi Calm Calm - N/A   Clear
2:35 PM 73.4 °F - 33.8 °F 23% 30.01 in 10.0 mi Calm Calm - N/A   Clear
2:55 PM 73.4 °F - 32.0 °F 22% 30.00 in 10.0 mi Calm Calm - N/A   Clear
3:15 PM 73.4 °F - 32.0 °F 22% 29.99 in 10.0 mi Calm Calm - N/A   Clear
3:35 PM 73.4 °F - 33.8 °F 23% 29.97 in 10.0 mi Calm Calm - N/A   Clear
3:55 PM 73.4 °F - 35.6 °F 25% 29.96 in 10.0 mi NNE 5.8 mph - N/A   Clear
4:15 PM 73.4 °F - 37.4 °F 27% 29.95 in 10.0 mi NNE 3.5 mph - N/A   Clear
4:35 PM 73.4 °F - 33.8 °F 23% 29.94 in 10.0 mi Calm Calm - N/A   Clear
4:55 PM 73.4 °F - 33.8 °F 23% 29.93 in 10.0 mi SE 4.6 mph - N/A   Clear
5:15 PM 75.2 °F - 32.0 °F 21% 29.93 in 10.0 mi Calm Calm - N/A   Unknown
5:35 PM 75.2 °F - 32.0 °F 21% 29.92 in 10.0 mi Calm Calm - N/A   Unknown
5:55 PM 77.0 °F - 33.8 °F 21% 29.92 in 10.0 mi Calm Calm - N/A   Unknown
6:15 PM 71.6 °F - 41.0 °F 33% 29.91 in 10.0 mi East 5.8 mph - N/A   Unknown
6:35 PM 68.0 °F - 41.0 °F 37% 29.91 in 10.0 mi ENE 4.6 mph - N/A   Clear
6:55 PM 71.6 °F - 37.4 °F 29% 29.92 in 10.0 mi SSW 3.5 mph - N/A   Clear
7:15 PM 69.8 °F - 37.4 °F 31% 29.92 in 10.0 mi SSW 4.6 mph - N/A   Clear
7:35 PM 68.0 °F - 35.6 °F 30% 29.92 in 10.0 mi South 3.5 mph - N/A   Clear
7:55 PM 66.2 °F - 35.6 °F 32% 29.92 in 10.0 mi SSW 4.6 mph - N/A   Clear
8:15 PM 64.4 °F - 35.6 °F 34% 29.91 in 10.0 mi South 3.5 mph - N/A   Clear
8:35 PM 64.4 °F - 33.8 °F 32% 29.91 in 10.0 mi SSW 4.6 mph - N/A   Clear
8:55 PM 62.6 °F - 33.8 °F 34% 29.91 in 10.0 mi SSW 5.8 mph - N/A   Clear
9:15 PM 60.8 °F - 33.8 °F 36% 29.91 in 10.0 mi SSW 3.5 mph - N/A   Clear
9:35 PM 60.8 °F - 33.8 °F 36% 29.91 in 10.0 mi SSW 4.6 mph - N/A   Clear
9:55 PM 59.0 °F - 33.8 °F 39% 29.91 in 10.0 mi South 4.6 mph - N/A   Clear
10:15 PM 59.0 °F - 33.8 °F 39% 29.91 in 10.0 mi SSE 4.6 mph - N/A   Clear
10:35 PM 57.2 °F - 33.8 °F 41% 29.89 in 10.0 mi South 3.5 mph - N/A   Clear
10:55 PM 55.4 °F - 33.8 °F 44% 29.89 in 10.0 mi South 3.5 mph - N/A   Clear
11:15 PM 51.8 °F - 37.4 °F 58% 29.89 in 10.0 mi Calm Calm - N/A   Clear
11:35 PM 51.8 °F - 37.4 °F 58% 29.88 in 10.0 mi SSW 3.5 mph - N/A   Clear
11:55 PM 51.8 °F - 39.2 °F 62% 29.87 in 10.0 mi SSE 3.5 mph - N/A   Clear